Time;durP1;ratioP1;P1;durP2;ratioP2;P2;SDS_P1;SDS_P2;PMS_P1;PMS_P2;Temp;Humidity;BMP_temperature;BMP_pressure;BME280_temperature;BME280_humidity;BME280_pressure;Samples;Min_cycle;Max_cycle;Signal;HPM_P1;HPM_P2
2024/01/25 06:01:04;;;;;;;22.10;5.37;;;;;;;;;;5695565;23;20586;-77
2024/01/25 06:03:30;;;;;;;20.83;6.30;;;;;;;;;;4956485;29;20417;-77
2024/01/25 06:05:56;;;;;;;22.50;5.10;;;;;;;;;;4956123;29;20651;-77
2024/01/25 06:08:22;;;;;;;21.00;5.50;;;;;;;;;;4957686;28;20409;-76
2024/01/25 06:10:48;;;;;;;23.20;4.80;;;;;;;;;;4957709;28;20476;-78
2024/01/25 06:13:14;;;;;;;26.93;5.40;;;;;;;;;;4956143;29;20503;-77
2024/01/25 06:15:40;;;;;;;15.73;3.90;;;;;;;;;;4958492;28;20427;-80
2024/01/25 06:18:07;;;;;;;23.53;6.43;;;;;;;;;;4957720;29;20421;-79
2024/01/25 06:20:33;;;;;;;19.70;5.50;;;;;;;;;;4958802;28;20444;-79
2024/01/25 06:22:59;;;;;;;18.73;5.53;;;;;;;;;;4958842;28;20420;-79
2024/01/25 06:25:26;;;;;;;27.43;6.50;;;;;;;;;;4957100;29;20421;-79
2024/01/25 06:27:52;;;;;;;28.10;5.57;;;;;;;;;;4958578;28;20416;-78
2024/01/25 06:30:19;;;;;;;17.63;4.70;;;;;;;;;;4959424;28;20782;-79
2024/01/25 06:32:45;;;;;;;29.20;5.40;;;;;;;;;;4961575;28;20424;-78
2024/01/25 06:35:11;;;;;;;18.60;4.57;;;;;;;;;;4963284;28;20405;-79
2024/01/25 06:37:37;;;;;;;26.37;5.87;;;;;;;;;;4957965;29;20528;-79
2024/01/25 06:40:04;;;;;;;24.47;5.47;;;;;;;;;;4959172;28;20424;-79
2024/01/25 06:42:30;;;;;;;28.17;6.43;;;;;;;;;;4956889;29;20448;-79
2024/01/25 06:44:56;;;;;;;25.87;5.80;;;;;;;;;;4958596;28;20552;-78
2024/01/25 06:47:22;;;;;;;22.03;6.13;;;;;;;;;;4956715;29;20428;-79
2024/01/25 06:49:51;;;;;;;26.60;5.37;;;;;;;;;;4958651;28;20460;-79
2024/01/25 06:52:17;;;;;;;31.80;5.90;;;;;;;;;;4958568;28;20424;-78
2024/01/25 06:54:43;;;;;;;34.83;5.40;;;;;;;;;;4958664;28;20435;-79
2024/01/25 06:57:09;;;;;;;29.40;4.80;;;;;;;;;;4956332;29;20954;-79
2024/01/25 06:59:35;;;;;;;35.40;6.50;;;;;;;;;;4958149;28;20500;-78
2024/01/25 07:02:02;;;;;;;25.90;5.40;;;;;;;;;;4958097;28;20468;-78
2024/01/25 07:04:28;;;;;;;38.20;6.90;;;;;;;;;;4957854;28;20428;-78
2024/01/25 07:06:55;;;;;;;27.70;5.77;;;;;;;;;;4958826;28;20754;-79
2024/01/25 07:09:21;;;;;;;17.20;5.93;;;;;;;;;;4957666;28;20555;-79
2024/01/25 07:11:47;;;;;;;30.80;6.20;;;;;;;;;;4958504;28;20888;-79
2024/01/25 07:14:13;;;;;;;27.50;5.73;;;;;;;;;;4958549;29;20803;-78
2024/01/25 07:16:39;;;;;;;36.27;6.13;;;;;;;;;;4959057;28;20471;-78
2024/01/25 07:19:04;;;;;;;28.60;6.77;;;;;;;;;;4958632;28;20520;-79
2024/01/25 07:21:32;;;;;;;25.53;5.40;;;;;;;;;;4958627;28;20532;-78
2024/01/25 07:23:59;;;;;;;19.50;5.50;;;;;;;;;;4957539;29;20525;-79
2024/01/25 07:26:25;;;;;;;22.97;5.63;;;;;;;;;;4957641;29;20421;-80
2024/01/25 07:28:56;;;;;;;18.80;5.20;;;;;;;;;;4958402;29;20999;-79
2024/01/25 07:31:22;;;;;;;25.57;5.30;;;;;;;;;;4961058;28;20476;-79
2024/01/25 07:33:48;;;;;;;41.67;6.30;;;;;;;;;;4969822;28;20401;-79
2024/01/25 07:36:14;;;;;;;17.80;5.47;;;;;;;;;;4968160;28;20409;-78
2024/01/25 07:38:40;;;;;;;25.03;5.87;;;;;;;;;;4958949;28;20412;-79
2024/01/25 07:41:07;;;;;;;39.63;5.10;;;;;;;;;;4958473;28;20464;-79
2024/01/25 07:43:33;;;;;;;26.77;5.57;;;;;;;;;;4958671;28;20585;-79
2024/01/25 07:45:59;;;;;;;23.23;6.27;;;;;;;;;;4956789;29;20444;-78
2024/01/25 07:48:25;;;;;;;32.63;5.57;;;;;;;;;;4956262;29;20421;-79
2024/01/25 07:50:51;;;;;;;26.43;5.93;;;;;;;;;;4957499;28;20476;-79
2024/01/25 07:53:17;;;;;;;20.37;5.33;;;;;;;;;;4958164;28;20406;-78
2024/01/25 07:55:43;;;;;;;28.37;5.80;;;;;;;;;;4957165;28;20413;-77
2024/01/25 07:58:09;;;;;;;27.87;5.57;;;;;;;;;;4957238;28;20756;-79
2024/01/25 08:00:35;;;;;;;22.73;5.80;;;;;;;;;;4957807;28;20451;-79
2024/01/25 08:03:01;;;;;;;18.57;6.73;;;;;;;;;;4956327;29;20441;-79
2024/01/25 08:05:27;;;;;;;26.27;5.33;;;;;;;;;;4957507;28;20417;-78
2024/01/25 08:07:53;;;;;;;26.67;5.73;;;;;;;;;;4957097;28;20507;-79
2024/01/25 08:10:19;;;;;;;22.90;5.70;;;;;;;;;;4956161;29;20468;-78
2024/01/25 08:12:47;;;;;;;30.53;6.87;;;;;;;;;;4956024;29;20495;-79
2024/01/25 08:15:14;;;;;;;35.90;7.07;;;;;;;;;;4955615;28;20421;-78
2024/01/25 08:17:40;;;;;;;26.30;6.37;;;;;;;;;;4957268;28;20439;-78
2024/01/25 08:20:07;;;;;;;25.43;7.10;;;;;;;;;;4958040;28;20428;-79
2024/01/25 08:22:33;;;;;;;27.40;5.90;;;;;;;;;;4956722;29;20425;-78
2024/01/25 08:24:59;;;;;;;20.60;6.30;;;;;;;;;;4959504;28;20433;-79
2024/01/25 08:27:25;;;;;;;23.00;5.20;;;;;;;;;;4957450;28;20417;-79
2024/01/25 08:29:51;;;;;;;21.60;5.50;;;;;;;;;;4957294;28;20463;-79
2024/01/25 08:32:17;;;;;;;30.20;6.77;;;;;;;;;;4957953;28;20440;-79
2024/01/25 08:34:43;;;;;;;27.50;5.83;;;;;;;;;;4957667;28;20432;-79
2024/01/25 08:37:09;;;;;;;21.13;6.70;;;;;;;;;;4956600;28;20757;-77
2024/01/25 08:39:35;;;;;;;42.33;7.50;;;;;;;;;;4960470;29;20808;-78
2024/01/25 08:42:03;;;;;;;18.07;4.80;;;;;;;;;;4957584;28;20953;-77
2024/01/25 08:44:29;;;;;;;24.43;6.70;;;;;;;;;;4955196;29;20420;-79
2024/01/25 08:46:55;;;;;;;25.43;5.70;;;;;;;;;;4958153;28;20441;-78
2024/01/25 08:49:21;;;;;;;14.40;4.40;;;;;;;;;;4956323;28;20464;-78
2024/01/25 08:51:47;;;;;;;24.63;5.20;;;;;;;;;;4954540;29;20468;-78
2024/01/25 08:54:13;;;;;;;21.80;5.73;;;;;;;;;;4955539;28;20420;-78
2024/01/25 08:56:39;;;;;;;29.13;6.40;;;;;;;;;;4954728;28;20416;-78
2024/01/25 08:59:05;;;;;;;19.23;6.40;;;;;;;;;;4955211;28;20409;-77
2024/01/25 09:01:31;;;;;;;16.03;4.77;;;;;;;;;;4955144;28;20798;-78
2024/01/25 09:04:02;;;;;;;22.27;5.60;;;;;;;;;;4955215;28;20788;-78
2024/01/25 09:06:28;;;;;;;29.07;6.80;;;;;;;;;;4953906;29;20421;-78
2024/01/25 09:08:54;;;;;;;35.50;7.73;;;;;;;;;;4954955;28;20424;-78
2024/01/25 09:11:20;;;;;;;20.97;4.70;;;;;;;;;;4955013;28;20448;-78
2024/01/25 09:13:47;;;;;;;29.07;5.73;;;;;;;;;;4954992;28;20463;-78
2024/01/25 09:16:13;;;;;;;28.37;4.80;;;;;;;;;;4953951;29;20440;-78
2024/01/25 09:18:39;;;;;;;28.70;5.10;;;;;;;;;;4955396;28;20428;-78
2024/01/25 09:21:05;;;;;;;25.83;6.40;;;;;;;;;;4955563;28;20803;-78
2024/01/25 09:23:31;;;;;;;16.57;4.50;;;;;;;;;;4955256;28;20405;-79
2024/01/25 09:25:57;;;;;;;17.67;5.40;;;;;;;;;;4956210;28;20963;-78
2024/01/25 09:28:23;;;;;;;24.27;4.90;;;;;;;;;;4955038;29;20447;-78
2024/01/25 09:30:49;;;;;;;21.13;4.83;;;;;;;;;;4955806;28;20487;-78
2024/01/25 09:33:15;;;;;;;26.63;6.10;;;;;;;;;;4955553;29;20540;-79
2024/01/25 09:35:41;;;;;;;16.53;5.17;;;;;;;;;;4956421;29;20848;-79
2024/01/25 09:38:07;;;;;;;29.03;5.57;;;;;;;;;;4957902;28;20488;-79
2024/01/25 09:40:33;;;;;;;27.73;6.50;;;;;;;;;;4958185;28;20428;-79
2024/01/25 09:42:59;;;;;;;19.97;5.50;;;;;;;;;;4957973;28;20956;-79
2024/01/25 09:45:25;;;;;;;22.70;5.37;;;;;;;;;;4954716;29;20461;-78
2024/01/25 09:47:51;;;;;;;24.80;5.20;;;;;;;;;;4953694;29;20420;-78
2024/01/25 09:50:17;;;;;;;20.27;4.97;;;;;;;;;;4954300;29;21058;-77
2024/01/25 09:52:48;;;;;;;16.67;5.73;;;;;;;;;;4955340;28;20409;-78
2024/01/25 09:55:19;;;;;;;24.03;6.00;;;;;;;;;;4955555;28;20504;-79
2024/01/25 09:57:49;;;;;;;32.20;6.47;;;;;;;;;;4955425;28;20427;-79
2024/01/25 10:00:15;;;;;;;14.20;4.40;;;;;;;;;;4954239;29;20572;-78
2024/01/25 10:02:41;;;;;;;22.07;5.17;;;;;;;;;;4955436;28;20424;-79
2024/01/25 10:05:07;;;;;;;21.27;4.70;;;;;;;;;;4954123;29;20431;-79
2024/01/25 10:07:40;;;;;;;15.40;5.00;;;;;;;;;;4955688;28;20420;-79
2024/01/25 10:10:06;;;;;;;16.27;4.00;;;;;;;;;;4955583;28;20495;-79
2024/01/25 10:12:33;;;;;;;21.10;5.40;;;;;;;;;;4955470;28;20811;-79
2024/01/25 10:14:59;;;;;;;21.40;5.80;;;;;;;;;;4953763;29;20412;-78
2024/01/25 10:17:25;;;;;;;24.93;5.87;;;;;;;;;;4953406;29;20456;-78
2024/01/25 10:19:51;;;;;;;27.47;5.33;;;;;;;;;;4955106;28;20479;-78
2024/01/25 10:22:17;;;;;;;35.93;5.60;;;;;;;;;;4955355;28;20443;-77
2024/01/25 10:24:43;;;;;;;20.60;4.90;;;;;;;;;;4956223;28;20611;-78
2024/01/25 10:27:09;;;;;;;15.73;4.03;;;;;;;;;;4954228;28;20412;-78
2024/01/25 10:29:35;;;;;;;21.87;5.50;;;;;;;;;;4953801;29;20979;-78
2024/01/25 10:32:03;;;;;;;20.60;4.50;;;;;;;;;;4955962;28;20439;-79
2024/01/25 10:34:29;;;;;;;19.40;4.83;;;;;;;;;;4955537;28;20417;-79
2024/01/25 10:36:56;;;;;;;22.37;5.13;;;;;;;;;;4954410;28;20773;-79
2024/01/25 10:39:22;;;;;;;18.00;4.37;;;;;;;;;;4958913;28;20417;-79
2024/01/25 10:41:50;;;;;;;22.53;5.33;;;;;;;;;;4956842;29;20456;-78
2024/01/25 10:44:17;;;;;;;13.60;4.50;;;;;;;;;;4959016;29;20431;-78
2024/01/25 10:46:44;;;;;;;19.93;4.80;;;;;;;;;;4957371;29;20740;-79
2024/01/25 10:49:10;;;;;;;26.23;4.80;;;;;;;;;;4971667;28;20417;-78
2024/01/25 10:51:36;;;;;;;25.33;4.73;;;;;;;;;;4968719;28;20437;-78
2024/01/25 10:54:06;;;;;;;36.10;6.13;;;;;;;;;;4966737;28;20420;-78
2024/01/25 10:56:32;;;;;;;27.73;5.70;;;;;;;;;;4958074;28;20532;-78
2024/01/25 10:58:57;;;;;;;34.17;5.40;;;;;;;;;;4957650;28;20452;-77
2024/01/25 11:01:24;;;;;;;28.80;5.70;;;;;;;;;;4955981;29;20452;-78
2024/01/25 11:03:50;;;;;;;32.23;7.60;;;;;;;;;;4957496;28;20409;-78
2024/01/25 11:06:17;;;;;;;24.87;5.57;;;;;;;;;;4955766;28;20409;-78
2024/01/25 11:08:43;;;;;;;14.17;3.90;;;;;;;;;;4956209;29;20419;-78
2024/01/25 11:11:11;;;;;;;18.73;4.70;;;;;;;;;;4957597;28;20563;-78
2024/01/25 11:13:39;;;;;;;29.40;4.83;;;;;;;;;;4956023;28;20417;-78
2024/01/25 11:16:29;;;;;;;25.03;5.40;;;;;;;;;;4957666;28;20417;-78
2024/01/25 11:18:58;;;;;;;18.63;4.93;;;;;;;;;;4956506;28;20412;-78
2024/01/25 11:21:38;;;;;;;16.73;4.30;;;;;;;;;;4957561;28;20428;-78
2024/01/25 11:24:04;;;;;;;18.10;4.67;;;;;;;;;;4957178;28;20784;-78
2024/01/25 11:26:34;;;;;;;19.83;4.60;;;;;;;;;;4955684;29;20468;-78
2024/01/25 11:29:00;;;;;;;25.83;4.80;;;;;;;;;;4957701;28;20440;-78
2024/01/25 11:31:27;;;;;;;18.07;4.40;;;;;;;;;;4956098;29;20483;-77
2024/01/25 11:33:57;;;;;;;13.03;3.60;;;;;;;;;;4955401;29;20444;-78
2024/01/25 11:36:23;;;;;;;31.33;4.97;;;;;;;;;;4956937;28;20521;-78
2024/01/25 11:38:49;;;;;;;18.13;4.30;;;;;;;;;;4956626;28;20416;-78
2024/01/25 11:41:15;;;;;;;15.60;4.17;;;;;;;;;;4957150;28;20919;-78
2024/01/25 11:43:41;;;;;;;16.07;3.47;;;;;;;;;;4955620;29;20428;-78
2024/01/25 11:46:07;;;;;;;12.70;3.77;;;;;;;;;;4955288;29;20429;-77
2024/01/25 11:48:33;;;;;;;10.30;4.13;;;;;;;;;;4956341;28;20417;-78
2024/01/25 11:51:00;;;;;;;13.63;3.40;;;;;;;;;;4955870;28;20472;-78
2024/01/25 11:53:26;;;;;;;13.07;3.50;;;;;;;;;;4956956;28;20413;-78
2024/01/25 11:55:54;;;;;;;24.57;4.50;;;;;;;;;;4956457;28;20476;-77
2024/01/25 11:58:20;;;;;;;15.87;4.23;;;;;;;;;;4956221;28;20496;-78
2024/01/25 12:00:47;;;;;;;15.40;4.13;;;;;;;;;;4956789;28;20456;-78
2024/01/25 12:03:13;;;;;;;12.90;3.27;;;;;;;;;;4957179;28;20409;-78
2024/01/25 12:05:40;;;;;;;15.57;3.57;;;;;;;;;;4956477;28;20413;-77
2024/01/25 12:08:10;;;;;;;33.47;4.80;;;;;;;;;;4956433;28;20423;-78
2024/01/25 12:10:35;;;;;;;17.53;3.90;;;;;;;;;;4956741;28;20990;-77
2024/01/25 12:13:01;;;;;;;14.13;3.87;;;;;;;;;;4955831;29;20425;-78
2024/01/25 12:15:28;;;;;;;22.43;4.57;;;;;;;;;;5029838;23;20534;-72
2024/01/25 12:17:55;;;;;;;17.37;4.40;;;;;;;;;;4975504;28;20416;-72
2024/01/25 12:20:21;;;;;;;14.97;3.80;;;;;;;;;;4973999;28;20789;-73
2024/01/25 12:22:49;;;;;;;16.10;4.00;;;;;;;;;;4975181;28;20408;-72
2024/01/25 12:25:15;;;;;;;19.17;3.70;;;;;;;;;;4973979;28;20507;-73
2024/01/25 12:27:41;;;;;;;23.70;4.70;;;;;;;;;;4975098;28;20439;-72
2024/01/25 12:30:08;;;;;;;30.53;4.13;;;;;;;;;;4975137;28;20498;-75
2024/01/25 12:32:34;;;;;;;15.17;4.13;;;;;;;;;;4975177;28;20435;-73
2024/01/25 12:35:01;;;;;;;15.67;4.13;;;;;;;;;;4975206;28;20990;-73
2024/01/25 12:37:27;;;;;;;11.27;3.50;;;;;;;;;;4974618;28;20914;-73
2024/01/25 12:39:54;;;;;;;10.63;3.60;;;;;;;;;;4975150;28;20424;-73
2024/01/25 12:42:20;;;;;;;13.57;3.40;;;;;;;;;;4974574;28;20411;-73
2024/01/25 12:44:46;;;;;;;25.83;4.47;;;;;;;;;;4974954;28;20482;-74
2024/01/25 12:47:13;;;;;;;17.03;4.00;;;;;;;;;;4974325;28;20852;-73
2024/01/25 12:49:42;;;;;;;15.83;3.80;;;;;;;;;;4974814;28;20459;-73
2024/01/25 12:52:09;;;;;;;15.90;3.57;;;;;;;;;;4975088;28;20415;-76
2024/01/25 12:54:35;;;;;;;25.50;4.07;;;;;;;;;;4974582;28;20412;-74
2024/01/25 12:57:01;;;;;;;19.37;4.97;;;;;;;;;;4974686;28;20518;-73
2024/01/25 12:59:27;;;;;;;18.67;4.03;;;;;;;;;;4974191;28;20416;-73
2024/01/25 13:01:53;;;;;;;16.60;3.67;;;;;;;;;;4973800;28;20420;-72
2024/01/25 13:04:20;;;;;;;17.50;3.73;;;;;;;;;;4974336;28;20514;-72
2024/01/25 13:06:46;;;;;;;19.00;3.90;;;;;;;;;;4973943;28;20482;-72
2024/01/25 13:09:12;;;;;;;14.57;3.40;;;;;;;;;;4974055;28;20419;-73
2024/01/25 13:11:38;;;;;;;13.07;3.70;;;;;;;;;;4974071;28;20419;-72
2024/01/25 13:14:04;;;;;;;14.97;2.97;;;;;;;;;;4974178;28;20902;-75
2024/01/25 13:16:30;;;;;;;17.23;3.20;;;;;;;;;;4974072;28;20491;-72
2024/01/25 13:18:56;;;;;;;27.90;6.40;;;;;;;;;;4973690;28;20542;-72
2024/01/25 13:21:22;;;;;;;16.93;4.87;;;;;;;;;;4974482;28;20507;-72
2024/01/25 13:23:48;;;;;;;17.80;2.63;;;;;;;;;;4974923;28;20419;-72
2024/01/25 13:26:14;;;;;;;15.60;3.70;;;;;;;;;;4973540;28;20427;-72
2024/01/25 13:28:40;;;;;;;15.43;3.90;;;;;;;;;;4973395;28;20430;-72
2024/01/25 13:31:06;;;;;;;22.07;4.53;;;;;;;;;;4973780;28;20455;-72
2024/01/25 13:33:32;;;;;;;11.63;3.10;;;;;;;;;;4973687;28;20499;-72
2024/01/25 13:35:58;;;;;;;15.73;3.73;;;;;;;;;;4973407;28;20427;-72
2024/01/25 13:38:24;;;;;;;15.73;4.53;;;;;;;;;;4973489;28;20415;-74
2024/01/25 13:40:51;;;;;;;21.77;3.97;;;;;;;;;;4973724;28;20466;-70
2024/01/25 13:43:17;;;;;;;19.27;3.67;;;;;;;;;;4973410;28;20423;-71
2024/01/25 13:45:43;;;;;;;10.57;3.27;;;;;;;;;;4973096;28;20436;-71
2024/01/25 13:48:09;;;;;;;22.70;4.37;;;;;;;;;;4973346;28;20415;-72
2024/01/25 13:50:35;;;;;;;14.40;3.30;;;;;;;;;;4973477;28;20486;-71
2024/01/25 13:53:01;;;;;;;27.43;4.13;;;;;;;;;;4973399;28;20419;-72
2024/01/25 13:55:27;;;;;;;18.83;4.10;;;;;;;;;;4973127;28;20523;-72
2024/01/25 13:57:53;;;;;;;20.17;4.40;;;;;;;;;;4968407;28;20459;-70
2024/01/25 14:00:19;;;;;;;20.00;5.40;;;;;;;;;;4958692;28;20488;-71
2024/01/25 14:02:45;;;;;;;14.73;3.57;;;;;;;;;;4955196;28;20519;-70
2024/01/25 14:05:11;;;;;;;21.27;3.80;;;;;;;;;;4953963;28;20515;-71
2024/01/25 14:07:37;;;;;;;21.97;3.47;;;;;;;;;;4953626;29;20479;-71
2024/01/25 14:10:03;;;;;;;20.97;4.00;;;;;;;;;;4958170;28;20460;-72
2024/01/25 14:12:29;;;;;;;19.47;3.60;;;;;;;;;;4971026;28;20925;-75
2024/01/25 14:14:55;;;;;;;20.90;4.30;;;;;;;;;;4977539;28;20451;-75
2024/01/25 14:17:21;;;;;;;11.97;3.80;;;;;;;;;;4962992;28;20466;-74
2024/01/25 14:19:47;;;;;;;14.20;3.50;;;;;;;;;;4959344;28;20896;-75
2024/01/25 14:22:13;;;;;;;14.30;3.47;;;;;;;;;;4977814;28;20911;-74
2024/01/25 14:24:39;;;;;;;10.57;3.43;;;;;;;;;;4977105;28;20416;-74
2024/01/25 14:27:05;;;;;;;17.77;2.83;;;;;;;;;;4976544;28;20787;-72
2024/01/25 14:29:33;;;;;;;10.37;3.23;;;;;;;;;;4976229;28;20837;-72
2024/01/25 14:31:59;;;;;;;16.50;4.07;;;;;;;;;;4964062;28;20959;-69
2024/01/25 14:34:25;;;;;;;14.80;3.20;;;;;;;;;;4956726;29;20405;-72
2024/01/25 14:36:51;;;;;;;18.43;3.40;;;;;;;;;;4968627;28;20436;-75
2024/01/25 14:39:17;;;;;;;16.30;3.80;;;;;;;;;;4976732;28;20783;-76
2024/01/25 14:41:44;;;;;;;8.90;3.13;;;;;;;;;;4976572;28;20953;-73
2024/01/25 14:44:10;;;;;;;13.87;3.37;;;;;;;;;;4976871;28;20420;-75
2024/01/25 14:46:36;;;;;;;15.47;3.77;;;;;;;;;;4976304;28;20434;-72
2024/01/25 14:49:03;;;;;;;13.60;3.83;;;;;;;;;;4976687;28;20416;-73
2024/01/25 14:51:29;;;;;;;13.20;3.60;;;;;;;;;;4974220;28;21021;-73
2024/01/25 14:53:55;;;;;;;9.83;3.40;;;;;;;;;;4976796;28;20412;-74
2024/01/25 14:56:21;;;;;;;17.40;4.10;;;;;;;;;;4965343;28;20514;-73
2024/01/25 14:58:47;;;;;;;24.47;4.33;;;;;;;;;;4968776;28;20412;-73
2024/01/25 15:01:22;;;;;;;15.13;2.90;;;;;;;;;;4976208;28;20423;-74
2024/01/25 15:03:48;;;;;;;25.70;4.70;;;;;;;;;;4972443;28;20509;-74
2024/01/25 15:06:14;;;;;;;15.00;3.80;;;;;;;;;;4976455;28;20486;-74
2024/01/25 15:08:40;;;;;;;23.10;4.43;;;;;;;;;;4975922;28;21001;-74
2024/01/25 15:11:07;;;;;;;18.77;3.87;;;;;;;;;;4974184;28;20467;-74
2024/01/25 15:13:33;;;;;;;16.20;4.37;;;;;;;;;;4968712;28;20464;-74
2024/01/25 15:16:00;;;;;;;10.80;3.20;;;;;;;;;;4965715;28;20471;-75
2024/01/25 15:18:25;;;;;;;17.23;3.87;;;;;;;;;;4977245;28;20439;-76
2024/01/25 15:20:52;;;;;;;18.63;3.97;;;;;;;;;;4976799;28;20427;-76
2024/01/25 15:23:18;;;;;;;20.63;5.87;;;;;;;;;;4976381;28;20506;-76
2024/01/25 15:25:44;;;;;;;15.33;3.73;;;;;;;;;;4973389;28;20571;-73
2024/01/25 15:28:10;;;;;;;12.80;3.50;;;;;;;;;;4973265;28;20475;-73
2024/01/25 15:30:36;;;;;;;17.50;3.80;;;;;;;;;;4975751;28;20456;-72
2024/01/25 15:33:04;;;;;;;16.13;3.90;;;;;;;;;;4975875;28;20899;-72
2024/01/25 15:35:30;;;;;;;13.50;3.80;;;;;;;;;;4975799;28;20432;-73
2024/01/25 15:37:56;;;;;;;12.93;4.57;;;;;;;;;;4976531;28;20501;-73
2024/01/25 15:40:22;;;;;;;20.03;4.00;;;;;;;;;;4975758;28;20416;-73
2024/01/25 15:42:54;;;;;;;14.97;3.87;;;;;;;;;;4975802;28;20423;-73
2024/01/25 15:45:20;;;;;;;20.33;4.20;;;;;;;;;;4975226;28;20443;-73
2024/01/25 15:47:46;;;;;;;13.47;2.97;;;;;;;;;;4975125;28;20444;-73
2024/01/25 15:50:12;;;;;;;11.23;3.63;;;;;;;;;;4974379;28;20475;-72
2024/01/25 15:52:39;;;;;;;20.00;3.87;;;;;;;;;;4956292;29;20412;-72
2024/01/25 15:55:05;;;;;;;10.83;4.10;;;;;;;;;;4955813;28;20433;-72
2024/01/25 15:57:31;;;;;;;16.80;4.90;;;;;;;;;;4955292;28;20441;-71
2024/01/25 15:59:57;;;;;;;16.93;3.83;;;;;;;;;;4956022;29;20500;-71
2024/01/25 16:02:23;;;;;;;13.33;3.60;;;;;;;;;;4956025;28;20413;-70
2024/01/25 16:04:49;;;;;;;15.17;4.57;;;;;;;;;;4955370;28;20959;-69
2024/01/25 16:07:15;;;;;;;10.37;3.10;;;;;;;;;;4968638;28;20424;-69
2024/01/25 16:09:41;;;;;;;9.20;3.53;;;;;;;;;;4974673;28;20466;-71
2024/01/25 16:12:08;;;;;;;11.17;3.53;;;;;;;;;;4974161;28;20506;-72
2024/01/25 16:14:34;;;;;;;16.20;4.50;;;;;;;;;;4975005;28;20475;-72
2024/01/25 16:17:00;;;;;;;15.27;5.07;;;;;;;;;;4974619;28;20427;-72
2024/01/25 16:19:26;;;;;;;11.17;4.17;;;;;;;;;;4974497;28;20416;-72
2024/01/25 16:21:52;;;;;;;15.00;3.60;;;;;;;;;;4974405;28;20412;-71
2024/01/25 16:24:18;;;;;;;18.17;3.97;;;;;;;;;;4974432;28;20907;-72
2024/01/25 16:26:45;;;;;;;14.00;3.60;;;;;;;;;;4973234;28;20993;-72
2024/01/25 16:29:11;;;;;;;11.00;4.07;;;;;;;;;;4973247;28;20491;-73
2024/01/25 16:31:37;;;;;;;16.47;3.80;;;;;;;;;;4973999;28;20411;-72
2024/01/25 16:34:03;;;;;;;23.47;4.03;;;;;;;;;;4973934;28;20555;-72
2024/01/25 16:36:29;;;;;;;21.47;4.60;;;;;;;;;;4973361;28;20447;-72
2024/01/25 16:38:54;;;;;;;12.50;3.70;;;;;;;;;;4973145;28;20893;-73
2024/01/25 16:41:20;;;;;;;14.27;4.23;;;;;;;;;;4973212;28;20759;-73
2024/01/25 16:43:46;;;;;;;23.10;4.50;;;;;;;;;;4973779;28;20471;-73
2024/01/25 16:46:12;;;;;;;18.07;5.50;;;;;;;;;;4973969;28;20830;-72
2024/01/25 16:48:38;;;;;;;13.87;3.87;;;;;;;;;;4973066;28;20483;-72
2024/01/25 16:51:04;;;;;;;16.87;3.90;;;;;;;;;;4974117;28;20494;-72
2024/01/25 16:53:30;;;;;;;16.23;3.70;;;;;;;;;;4974310;28;20436;-71
2024/01/25 16:55:58;;;;;;;16.60;3.57;;;;;;;;;;4974772;28;20428;-71
2024/01/25 16:58:24;;;;;;;13.93;4.37;;;;;;;;;;4974388;28;20410;-71
2024/01/25 17:00:51;;;;;;;12.80;3.23;;;;;;;;;;4973965;28;20873;-73
2024/01/25 17:03:17;;;;;;;24.63;5.33;;;;;;;;;;4973882;28;20414;-73
2024/01/25 17:05:43;;;;;;;30.03;4.60;;;;;;;;;;4973360;28;20454;-73
2024/01/25 17:08:09;;;;;;;26.87;5.07;;;;;;;;;;4973429;28;20447;-72
2024/01/25 17:10:35;;;;;;;14.20;3.30;;;;;;;;;;4973619;28;20456;-72
2024/01/25 17:13:01;;;;;;;12.83;3.40;;;;;;;;;;4973919;28;20490;-72
2024/01/25 17:15:27;;;;;;;9.43;4.40;;;;;;;;;;4973551;28;20455;-72
2024/01/25 17:17:53;;;;;;;10.73;3.27;;;;;;;;;;4973377;28;20422;-72
2024/01/25 17:20:19;;;;;;;15.43;3.90;;;;;;;;;;4973384;28;20917;-72
2024/01/25 17:22:44;;;;;;;10.80;5.00;;;;;;;;;;4973586;28;20777;-72
2024/01/25 17:25:10;;;;;;;5.43;3.20;;;;;;;;;;4973597;28;20486;-73
2024/01/25 17:27:36;;;;;;;13.87;4.63;;;;;;;;;;4972861;28;20498;-73
2024/01/25 17:30:03;;;;;;;8.10;3.50;;;;;;;;;;4973772;28;20595;-73
2024/01/25 17:32:29;;;;;;;12.93;3.60;;;;;;;;;;4973446;28;20416;-73
2024/01/25 17:34:55;;;;;;;7.53;3.33;;;;;;;;;;4973290;28;20438;-72
2024/01/25 17:37:21;;;;;;;7.83;3.33;;;;;;;;;;4973652;28;20759;-73
2024/01/25 17:39:47;;;;;;;9.40;3.00;;;;;;;;;;4973720;28;20418;-72
2024/01/25 17:42:13;;;;;;;9.17;3.00;;;;;;;;;;4973837;28;20921;-72
2024/01/25 17:44:39;;;;;;;10.00;3.63;;;;;;;;;;4973775;28;20967;-72
2024/01/25 17:47:05;;;;;;;9.47;3.60;;;;;;;;;;4973144;28;20443;-72
2024/01/25 17:49:31;;;;;;;11.10;3.60;;;;;;;;;;4970419;28;20452;-73
2024/01/25 17:51:57;;;;;;;19.53;3.67;;;;;;;;;;4972756;28;20420;-72
2024/01/25 17:54:24;;;;;;;17.83;4.50;;;;;;;;;;4972059;28;20407;-74
2024/01/25 17:56:50;;;;;;;20.63;4.43;;;;;;;;;;4971594;28;20482;-72
2024/01/25 17:59:16;;;;;;;8.67;3.10;;;;;;;;;;4972991;28;20443;-73
2024/01/25 18:01:42;;;;;;;12.70;3.70;;;;;;;;;;4974678;28;20451;-73
2024/01/25 18:04:08;;;;;;;9.43;3.03;;;;;;;;;;4972919;28;20423;-73
2024/01/25 18:06:34;;;;;;;10.83;3.27;;;;;;;;;;4972796;28;20440;-74
2024/01/25 18:09:00;;;;;;;12.67;4.10;;;;;;;;;;4972720;28;20902;-73
2024/01/25 18:11:26;;;;;;;25.80;4.50;;;;;;;;;;4972991;28;20895;-72
2024/01/25 18:13:52;;;;;;;7.30;3.90;;;;;;;;;;4973070;28;20835;-72
2024/01/25 18:16:18;;;;;;;14.50;3.43;;;;;;;;;;4971670;28;20981;-75
2024/01/25 18:18:44;;;;;;;16.77;3.67;;;;;;;;;;4972986;28;20512;-73
2024/01/25 18:21:10;;;;;;;12.37;3.60;;;;;;;;;;4973042;28;20420;-76
2024/01/25 18:23:36;;;;;;;9.17;3.20;;;;;;;;;;4971871;28;20490;-73
2024/01/25 18:26:02;;;;;;;15.23;3.80;;;;;;;;;;4972727;28;20436;-73
2024/01/25 18:28:28;;;;;;;26.60;5.37;;;;;;;;;;4972886;28;20806;-72
2024/01/25 18:30:54;;;;;;;21.73;5.40;;;;;;;;;;4973092;28;20490;-72
2024/01/25 18:33:21;;;;;;;9.97;4.63;;;;;;;;;;4972188;28;20419;-73
2024/01/25 18:35:47;;;;;;;14.13;5.20;;;;;;;;;;4972952;28;20575;-73
2024/01/25 18:38:13;;;;;;;19.50;5.27;;;;;;;;;;4972726;28;20970;-73
2024/01/25 18:40:39;;;;;;;19.00;6.60;;;;;;;;;;4971606;28;20513;-74
2024/01/25 18:43:05;;;;;;;23.40;6.50;;;;;;;;;;4959006;28;20421;-72
2024/01/25 18:45:31;;;;;;;14.87;6.90;;;;;;;;;;4961008;28;20985;-72
2024/01/25 18:47:57;;;;;;;18.97;7.43;;;;;;;;;;4972982;28;20423;-73
2024/01/25 18:50:23;;;;;;;15.43;5.90;;;;;;;;;;4972754;28;20537;-73
2024/01/25 18:52:49;;;;;;;10.20;6.00;;;;;;;;;;4960819;28;20932;-72
2024/01/25 18:55:16;;;;;;;11.13;5.43;;;;;;;;;;4969490;28;20441;-72
2024/01/25 18:57:42;;;;;;;16.73;5.67;;;;;;;;;;4973275;28;20487;-73
2024/01/25 19:00:10;;;;;;;21.63;5.83;;;;;;;;;;4974313;28;20416;-72
2024/01/25 19:02:37;;;;;;;15.93;5.80;;;;;;;;;;4961324;28;20915;-72
2024/01/25 19:05:04;;;;;;;14.60;5.33;;;;;;;;;;4975564;28;20447;-71
2024/01/25 19:07:31;;;;;;;10.27;5.60;;;;;;;;;;4976356;28;20448;-73
2024/01/25 19:09:56;;;;;;;16.00;5.60;;;;;;;;;;4977030;28;20520;-72
2024/01/25 19:12:22;;;;;;;10.90;5.70;;;;;;;;;;4976404;28;20908;-73
2024/01/25 19:14:48;;;;;;;15.63;5.80;;;;;;;;;;4975984;28;20504;-73
2024/01/25 19:17:14;;;;;;;16.67;6.50;;;;;;;;;;4975759;28;20415;-72
2024/01/25 19:19:40;;;;;;;17.00;5.17;;;;;;;;;;4975925;28;20428;-73
2024/01/25 19:22:07;;;;;;;22.83;6.97;;;;;;;;;;4977096;28;20427;-73
2024/01/25 19:24:33;;;;;;;18.83;5.70;;;;;;;;;;4978438;28;20908;-73
2024/01/25 19:26:59;;;;;;;16.37;6.00;;;;;;;;;;4976009;28;20458;-71
2024/01/25 19:29:25;;;;;;;12.63;5.50;;;;;;;;;;4975731;28;20416;-72
2024/01/25 19:31:51;;;;;;;26.47;6.53;;;;;;;;;;4976281;28;20772;-72
2024/01/25 19:34:17;;;;;;;18.43;6.63;;;;;;;;;;4957337;28;20456;-74
2024/01/25 19:36:43;;;;;;;13.53;5.60;;;;;;;;;;4956127;29;20975;-73
2024/01/25 19:39:10;;;;;;;13.90;5.97;;;;;;;;;;4956525;29;20877;-73
2024/01/25 19:41:36;;;;;;;13.70;5.30;;;;;;;;;;4957726;28;20420;-73
2024/01/25 19:44:02;;;;;;;17.17;6.20;;;;;;;;;;4957532;28;20512;-74
2024/01/25 19:46:28;;;;;;;16.33;5.70;;;;;;;;;;4956428;28;20859;-73
2024/01/25 19:48:54;;;;;;;18.30;5.90;;;;;;;;;;4955639;28;20412;-73
2024/01/25 19:51:20;;;;;;;14.10;6.20;;;;;;;;;;4970790;28;20529;-73
2024/01/25 19:53:47;;;;;;;19.87;6.10;;;;;;;;;;4974540;28;20522;-73
2024/01/25 19:56:14;;;;;;;15.37;5.43;;;;;;;;;;4972784;28;20468;-74
2024/01/25 19:58:40;;;;;;;11.53;5.53;;;;;;;;;;4974055;28;20439;-73
2024/01/25 20:01:06;;;;;;;17.17;6.33;;;;;;;;;;4958927;28;20947;-72
2024/01/25 20:03:33;;;;;;;20.80;6.53;;;;;;;;;;4974919;28;20424;-73
2024/01/25 20:05:59;;;;;;;20.30;6.23;;;;;;;;;;4973151;28;20470;-74
2024/01/25 20:08:27;;;;;;;17.13;5.30;;;;;;;;;;4974761;28;20420;-73
2024/01/25 20:10:53;;;;;;;24.47;6.70;;;;;;;;;;4962977;28;20896;-74
2024/01/25 20:13:19;;;;;;;14.00;5.83;;;;;;;;;;4955761;28;20405;-73
2024/01/25 20:15:46;;;;;;;15.33;5.80;;;;;;;;;;4955422;29;20445;-72
2024/01/25 20:18:12;;;;;;;18.30;5.80;;;;;;;;;;4966905;28;20427;-73
2024/01/25 20:20:38;;;;;;;18.80;5.23;;;;;;;;;;4974791;28;20412;-75
2024/01/25 20:23:04;;;;;;;10.57;5.80;;;;;;;;;;4974717;28;20415;-74
2024/01/25 20:25:30;;;;;;;20.40;6.37;;;;;;;;;;4974066;28;20440;-73